createdAt,value
2023-12-09T00:01:55.345Z,11.90
2023-12-09T00:04:22.175Z,11.70
2023-12-09T00:06:50.394Z,11.80
2023-12-09T00:09:19.537Z,11.80
2023-12-09T00:11:46.684Z,11.80
2023-12-09T00:14:13.484Z,11.80
2023-12-09T00:16:41.575Z,12.70
2023-12-09T00:19:10.296Z,11.80
2023-12-09T00:21:37.486Z,11.90
2023-12-09T00:24:04.376Z,11.80
2023-12-09T00:26:32.102Z,11.90
2023-12-09T00:28:59.082Z,12.00
2023-12-09T00:31:26.094Z,11.90
2023-12-09T00:33:53.100Z,12.70
2023-12-09T00:36:20.070Z,12.40
2023-12-09T00:38:47.068Z,12.00
2023-12-09T00:41:13.872Z,11.90
2023-12-09T00:43:40.657Z,11.90
2023-12-09T00:46:07.776Z,12.00
2023-12-09T00:48:34.785Z,11.90
2023-12-09T00:51:01.706Z,12.00
2023-12-09T00:53:28.604Z,12.80
2023-12-09T00:55:55.333Z,11.90
2023-12-09T00:58:22.374Z,11.90
2023-12-09T01:00:49.218Z,13.10
2023-12-09T01:03:16.163Z,11.90
2023-12-09T01:05:43.000Z,12.00
2023-12-09T01:08:09.858Z,11.90
2023-12-09T01:10:36.661Z,11.90
2023-12-09T01:13:03.646Z,11.80
2023-12-09T01:15:30.562Z,12.30
2023-12-09T01:17:57.591Z,11.70
2023-12-09T01:20:25.684Z,11.70
2023-12-09T01:22:52.722Z,11.80
2023-12-09T01:25:19.533Z,11.80
2023-12-09T01:27:46.916Z,11.70
2023-12-09T01:30:14.210Z,11.70
2023-12-09T01:32:41.504Z,11.50
2023-12-09T01:35:08.563Z,11.60
2023-12-09T01:37:35.420Z,11.60
2023-12-09T01:40:02.397Z,11.60
2023-12-09T01:42:29.555Z,11.50
2023-12-09T01:44:56.684Z,11.70
2023-12-09T01:47:23.852Z,11.60
2023-12-09T01:49:51.060Z,11.50
2023-12-09T01:52:19.527Z,11.40
2023-12-09T01:54:46.879Z,11.90
2023-12-09T01:57:14.650Z,11.30
2023-12-09T01:59:41.528Z,11.20
2023-12-09T02:02:09.100Z,11.20
2023-12-09T02:04:36.222Z,11.20
2023-12-09T02:07:03.814Z,11.10
2023-12-09T02:09:30.816Z,11.10
2023-12-09T02:12:12.046Z,11.10
2023-12-09T02:14:49.556Z,11.10
2023-12-09T02:17:23.203Z,11.10
2023-12-09T02:19:50.133Z,11.10
2023-12-09T02:22:16.939Z,11.20
2023-12-09T02:24:43.814Z,11.10
2023-12-09T02:27:16.654Z,11.20
2023-12-09T02:30:04.795Z,11.20
2023-12-09T02:32:32.689Z,11.20
2023-12-09T02:35:02.287Z,11.20
2023-12-09T02:37:33.377Z,11.10
2023-12-09T02:40:01.808Z,12.30
2023-12-09T02:42:28.941Z,11.10
2023-12-09T02:44:59.373Z,11.00
2023-12-09T02:47:26.441Z,10.90
2023-12-09T02:49:53.269Z,10.80
2023-12-09T02:52:20.119Z,10.80
2023-12-09T02:54:47.550Z,10.80
2023-12-09T02:57:14.356Z,10.80
2023-12-09T02:59:41.681Z,10.80
2023-12-09T03:02:08.499Z,10.70
2023-12-09T03:04:35.449Z,10.80
2023-12-09T03:07:02.301Z,10.80
2023-12-09T03:09:29.152Z,10.70
2023-12-09T03:11:56.185Z,10.80
2023-12-09T03:14:23.761Z,10.80
2023-12-09T03:16:50.579Z,10.80
2023-12-09T03:19:17.380Z,10.60
2023-12-09T03:21:44.665Z,10.70
2023-12-09T03:24:11.544Z,10.70
2023-12-09T03:26:38.353Z,10.70
2023-12-09T03:29:05.133Z,10.70
2023-12-09T03:31:31.926Z,10.70
2023-12-09T03:33:58.822Z,10.80
2023-12-09T03:36:25.704Z,10.80
2023-12-09T03:38:52.478Z,10.80
2023-12-09T03:41:19.654Z,10.80
2023-12-09T03:43:47.078Z,10.80
2023-12-09T03:46:14.427Z,10.90
2023-12-09T03:48:41.344Z,10.80
2023-12-09T03:51:08.499Z,10.80
2023-12-09T03:53:35.382Z,10.80
2023-12-09T03:56:02.126Z,10.70
2023-12-09T03:58:28.914Z,10.90
2023-12-09T04:00:55.808Z,10.90
2023-12-09T04:03:23.336Z,11.80
2023-12-09T04:05:51.254Z,10.90
2023-12-09T04:08:18.138Z,10.90
2023-12-09T04:10:44.973Z,10.90
2023-12-09T04:13:11.757Z,10.90
2023-12-09T04:15:41.325Z,10.90
2023-12-09T04:18:08.540Z,10.80
2023-12-09T04:20:35.634Z,10.80
2023-12-09T04:23:02.418Z,10.80
2023-12-09T04:25:29.150Z,10.70
2023-12-09T04:27:55.954Z,10.60
2023-12-09T04:30:25.755Z,10.70
2023-12-09T04:32:52.753Z,10.70
2023-12-09T04:35:19.599Z,10.70
2023-12-09T04:37:46.440Z,10.60
2023-12-09T04:40:15.839Z,10.50
2023-12-09T04:42:43.968Z,10.60
2023-12-09T04:45:11.368Z,11.20
2023-12-09T04:47:38.581Z,10.50
2023-12-09T04:50:09.196Z,10.50
2023-12-09T04:52:39.145Z,10.40
2023-12-09T04:55:06.541Z,10.50
2023-12-09T04:57:33.628Z,10.40
2023-12-09T05:00:04.879Z,10.20
2023-12-09T05:02:31.693Z,10.30
2023-12-09T05:04:58.469Z,10.30
2023-12-09T05:07:27.189Z,10.20
2023-12-09T05:09:54.148Z,10.20
2023-12-09T05:12:21.153Z,10.20
2023-12-09T05:14:47.969Z,10.20
2023-12-09T05:17:16.148Z,10.20
2023-12-09T05:19:44.202Z,10.20
2023-12-09T05:22:12.418Z,10.20
2023-12-09T05:24:39.317Z,10.20
2023-12-09T05:27:06.449Z,10.20
2023-12-09T05:29:33.303Z,10.10
2023-12-09T05:32:00.395Z,10.10
2023-12-09T05:34:27.684Z,10.10
2023-12-09T05:36:54.951Z,10.20
2023-12-09T05:39:21.878Z,10.30
2023-12-09T05:41:48.710Z,10.20
2023-12-09T05:44:15.501Z,10.20
2023-12-09T05:46:42.320Z,10.10
2023-12-09T05:49:09.202Z,10.10
2023-12-09T05:51:36.154Z,10.50
2023-12-09T05:54:03.019Z,10.10
2023-12-09T05:56:29.867Z,10.20
2023-12-09T05:58:56.679Z,10.30
2023-12-09T06:01:23.609Z,10.20
2023-12-09T06:03:50.484Z,10.30
2023-12-09T06:06:17.476Z,10.20
2023-12-09T06:08:44.642Z,10.20
2023-12-09T06:11:11.655Z,10.20
2023-12-09T06:13:38.560Z,10.10
2023-12-09T06:16:05.635Z,10.20
2023-12-09T06:18:32.558Z,10.20
2023-12-09T06:20:59.489Z,10.00
2023-12-09T06:23:26.298Z,10.10
2023-12-09T06:25:53.700Z,10.20
2023-12-09T06:28:20.501Z,10.10
2023-12-09T06:30:47.442Z,10.10
2023-12-09T06:33:14.395Z,10.20
2023-12-09T06:35:41.685Z,10.10
2023-12-09T06:38:08.480Z,10.30
2023-12-09T06:40:35.342Z,10.20
2023-12-09T06:43:02.117Z,10.30
2023-12-09T06:45:28.914Z,10.40
2023-12-09T06:47:56.381Z,10.40
2023-12-09T06:50:23.300Z,10.30
2023-12-09T06:52:50.515Z,10.40
2023-12-09T06:55:17.685Z,10.40
2023-12-09T06:57:44.671Z,10.40
2023-12-09T07:00:13.814Z,10.30
2023-12-09T07:02:49.030Z,10.50
2023-12-09T07:05:23.797Z,10.60
2023-12-09T07:07:52.074Z,10.50
2023-12-09T07:10:19.563Z,10.50
2023-12-09T07:12:46.436Z,11.00
2023-12-09T07:15:13.598Z,10.50
2023-12-09T07:17:40.822Z,10.60
2023-12-09T07:20:08.359Z,10.60
2023-12-09T07:22:35.196Z,10.60
2023-12-09T07:25:02.006Z,10.50
2023-12-09T07:27:28.907Z,10.60
2023-12-09T07:29:55.870Z,10.60
2023-12-09T07:32:22.909Z,10.60
2023-12-09T07:34:49.922Z,10.60
2023-12-09T07:37:17.014Z,10.70
2023-12-09T07:39:43.815Z,10.60
2023-12-09T07:42:11.243Z,10.70
2023-12-09T07:44:38.055Z,10.60
2023-12-09T07:47:05.199Z,10.70
2023-12-09T07:49:32.343Z,10.60
2023-12-09T07:51:59.260Z,11.40
2023-12-09T07:54:26.058Z,10.60
2023-12-09T07:56:52.820Z,10.70
2023-12-09T07:59:19.542Z,10.60
2023-12-09T08:01:46.410Z,10.70
2023-12-09T08:04:13.695Z,10.70
2023-12-09T08:06:40.879Z,10.70
2023-12-09T08:09:08.479Z,10.80
2023-12-09T08:11:35.409Z,11.50
2023-12-09T08:14:02.605Z,10.80
2023-12-09T08:16:29.524Z,11.00
2023-12-09T08:18:56.514Z,10.90
2023-12-09T08:21:25.424Z,10.80
2023-12-09T08:23:52.373Z,11.30
2023-12-09T08:26:19.854Z,10.90
2023-12-09T08:28:46.926Z,10.90
2023-12-09T08:31:13.871Z,10.90
2023-12-09T08:33:42.135Z,10.90
2023-12-09T08:36:09.961Z,10.90
2023-12-09T08:38:36.890Z,10.90
2023-12-09T08:41:04.155Z,11.10
2023-12-09T08:43:31.177Z,10.90
2023-12-09T08:45:57.920Z,10.90
2023-12-09T08:48:25.557Z,10.90
2023-12-09T08:50:52.577Z,10.90
2023-12-09T08:53:19.396Z,11.00
2023-12-09T08:55:46.227Z,11.10
2023-12-09T08:58:13.134Z,11.00
2023-12-09T09:00:40.576Z,11.00
2023-12-09T09:03:08.058Z,11.00
2023-12-09T09:05:35.074Z,11.00
2023-12-09T09:08:02.067Z,10.90
2023-12-09T09:10:29.180Z,11.10
2023-12-09T09:12:56.017Z,11.10
2023-12-09T09:15:22.993Z,11.00
2023-12-09T09:17:49.990Z,11.00
2023-12-09T09:20:16.850Z,11.30
2023-12-09T09:22:46.314Z,11.70
2023-12-09T09:25:14.647Z,11.10
2023-12-09T09:27:41.620Z,11.20
2023-12-09T09:30:09.026Z,11.20
2023-12-09T09:32:35.956Z,11.30
2023-12-09T09:35:04.304Z,11.10
2023-12-09T09:37:31.265Z,11.20
2023-12-09T09:39:58.129Z,11.20
2023-12-09T09:42:31.258Z,11.20
2023-12-09T09:45:30.405Z,11.20
2023-12-09T09:48:06.624Z,11.20
2023-12-09T09:50:46.617Z,11.20
2023-12-09T09:53:17.410Z,11.60
2023-12-09T09:55:44.731Z,11.30
2023-12-09T09:58:14.139Z,11.30
2023-12-09T10:00:41.155Z,11.40
2023-12-09T10:03:08.257Z,11.50
2023-12-09T10:05:35.166Z,11.60
2023-12-09T10:08:01.983Z,12.50
2023-12-09T10:10:30.949Z,11.70
2023-12-09T10:12:58.005Z,11.70
2023-12-09T10:15:24.818Z,11.70
2023-12-09T10:17:51.805Z,11.80
2023-12-09T10:20:18.670Z,11.90
2023-12-09T10:22:48.011Z,11.90
2023-12-09T10:25:24.738Z,12.20
2023-12-09T10:27:52.298Z,11.90
2023-12-09T10:30:22.015Z,11.90
2023-12-09T10:32:49.472Z,11.90
2023-12-09T10:35:20.376Z,11.90
2023-12-09T10:37:50.871Z,12.00
2023-12-09T10:40:22.189Z,12.00
2023-12-09T10:42:51.184Z,12.10
2023-12-09T10:45:18.116Z,12.10
2023-12-09T10:47:45.080Z,12.00
2023-12-09T10:50:13.402Z,12.10
2023-12-09T10:52:40.453Z,12.20
2023-12-09T10:55:07.773Z,12.10
2023-12-09T10:57:35.028Z,12.10
2023-12-09T11:00:09.066Z,12.10
2023-12-09T11:02:37.204Z,12.20
2023-12-09T11:05:04.612Z,12.20
2023-12-09T11:07:33.697Z,12.20
2023-12-09T11:10:00.932Z,12.20
2023-12-09T11:12:29.232Z,12.20
2023-12-09T11:14:56.583Z,12.20
2023-12-09T11:17:36.512Z,12.30
2023-12-09T11:20:11.521Z,12.10
2023-12-09T11:22:41.249Z,12.10
2023-12-09T11:25:13.303Z,12.10
2023-12-09T11:27:40.393Z,12.00
2023-12-09T11:30:07.905Z,11.90
2023-12-09T11:32:36.391Z,12.10
2023-12-09T11:35:03.701Z,12.10
2023-12-09T11:37:31.269Z,12.10
2023-12-09T11:39:59.132Z,12.00
2023-12-09T11:42:26.946Z,12.10
2023-12-09T11:44:54.329Z,12.00
2023-12-09T11:47:22.789Z,12.60
2023-12-09T11:49:50.175Z,12.10
2023-12-09T11:52:16.933Z,12.10
2023-12-09T11:54:43.779Z,12.10
2023-12-09T11:57:10.609Z,12.20
2023-12-09T11:59:37.780Z,12.20
2023-12-09T12:02:04.804Z,12.10
2023-12-09T12:04:37.437Z,12.20
2023-12-09T12:07:05.676Z,12.20
2023-12-09T12:09:32.488Z,12.20
2023-12-09T12:11:59.468Z,12.10
2023-12-09T12:14:26.700Z,12.20
2023-12-09T12:16:53.596Z,12.10
2023-12-09T12:19:20.569Z,12.10
2023-12-09T12:21:56.206Z,12.10
2023-12-09T12:24:23.124Z,12.20
2023-12-09T12:26:50.023Z,12.10
2023-12-09T12:29:20.092Z,12.20
2023-12-09T12:31:51.026Z,12.10
2023-12-09T12:34:19.363Z,12.10
2023-12-09T12:36:48.247Z,12.10
2023-12-09T12:39:16.283Z,12.10
2023-12-09T12:41:43.447Z,12.10
2023-12-09T12:44:12.336Z,12.20
2023-12-09T12:46:39.240Z,12.30
2023-12-09T12:49:06.833Z,12.30
2023-12-09T12:51:34.167Z,12.20
2023-12-09T12:54:01.238Z,12.20
2023-12-09T12:56:28.609Z,12.10
2023-12-09T12:58:55.421Z,12.20
2023-12-09T13:01:22.331Z,12.10
2023-12-09T13:03:49.689Z,12.00
2023-12-09T13:06:17.081Z,12.00
2023-12-09T13:08:44.236Z,11.90
2023-12-09T13:11:11.833Z,11.90
2023-12-09T13:13:38.665Z,11.90
2023-12-09T13:16:06.104Z,11.80
2023-12-09T13:18:33.245Z,11.80
2023-12-09T13:21:00.267Z,11.70
2023-12-09T13:23:28.490Z,11.70
2023-12-09T13:25:55.332Z,11.70
2023-12-09T13:28:22.219Z,11.60
2023-12-09T13:30:49.234Z,11.60
2023-12-09T13:33:16.304Z,11.70
2023-12-09T13:35:43.296Z,11.70
2023-12-09T13:38:10.220Z,11.70
2023-12-09T13:40:39.689Z,11.70
2023-12-09T13:43:06.628Z,11.70
2023-12-09T13:45:37.075Z,11.60
2023-12-09T13:48:05.038Z,11.60
2023-12-09T13:50:32.041Z,11.50
2023-12-09T13:52:59.061Z,11.50
2023-12-09T13:55:27.268Z,11.40
2023-12-09T13:57:54.167Z,11.50
2023-12-09T14:00:21.225Z,11.50
2023-12-09T14:02:48.154Z,11.40
2023-12-09T14:05:15.822Z,11.40
2023-12-09T14:07:42.971Z,11.40
2023-12-09T14:10:10.304Z,11.50
2023-12-09T14:12:37.210Z,11.40
2023-12-09T14:15:04.295Z,11.40
2023-12-09T14:17:32.780Z,11.40
2023-12-09T14:20:00.581Z,11.40
2023-12-09T14:22:27.785Z,11.40
2023-12-09T14:24:55.004Z,11.50
2023-12-09T14:27:21.997Z,11.40
2023-12-09T14:29:48.939Z,11.40
2023-12-09T14:32:15.816Z,11.40
2023-12-09T14:34:43.087Z,11.30
2023-12-09T14:37:10.232Z,11.30
2023-12-09T14:39:37.305Z,11.30
2023-12-09T14:42:04.452Z,11.30
2023-12-09T14:44:31.468Z,11.20
2023-12-09T14:46:58.458Z,11.20
2023-12-09T14:49:25.751Z,11.20
2023-12-09T14:51:52.739Z,11.20
2023-12-09T14:54:20.737Z,11.10
2023-12-09T14:56:47.940Z,11.20
2023-12-09T14:59:16.463Z,11.10
2023-12-09T15:01:43.500Z,11.20
2023-12-09T15:04:10.560Z,11.10
2023-12-09T15:06:37.720Z,11.10
2023-12-09T15:09:05.303Z,11.10
2023-12-09T15:11:32.220Z,11.10
2023-12-09T15:13:59.079Z,11.10
2023-12-09T15:16:26.031Z,11.20
2023-12-09T15:18:53.084Z,11.10
2023-12-09T15:21:21.500Z,11.00
2023-12-09T15:23:48.377Z,11.00
2023-12-09T15:26:15.505Z,11.00
2023-12-09T15:28:42.529Z,13.30
2023-12-09T15:31:09.387Z,10.90
2023-12-09T15:33:36.656Z,10.90
2023-12-09T15:36:04.349Z,10.90
2023-12-09T15:38:32.215Z,11.00
2023-12-09T15:40:59.086Z,11.00
2023-12-09T15:43:26.062Z,10.90
2023-12-09T15:45:55.986Z,10.90
2023-12-09T15:48:27.080Z,10.90
2023-12-09T15:50:54.732Z,11.00
2023-12-09T15:53:21.709Z,11.00
2023-12-09T15:55:48.620Z,10.90
2023-12-09T15:58:16.101Z,11.10
2023-12-09T16:00:43.142Z,11.00
2023-12-09T16:03:12.992Z,11.00
2023-12-09T16:05:40.454Z,11.00
2023-12-09T16:08:07.591Z,11.00
2023-12-09T16:10:34.535Z,11.00
2023-12-09T16:13:01.596Z,11.00
2023-12-09T16:15:28.477Z,11.10
2023-12-09T16:17:55.987Z,11.10
2023-12-09T16:20:23.425Z,11.10
2023-12-09T16:22:50.463Z,11.20
2023-12-09T16:25:17.331Z,11.20
2023-12-09T16:27:44.313Z,11.20
2023-12-09T16:30:11.713Z,11.20
2023-12-09T16:32:38.839Z,11.10
2023-12-09T16:35:06.861Z,11.00
2023-12-09T16:37:35.248Z,11.10
2023-12-09T16:40:02.170Z,11.00
2023-12-09T16:42:29.487Z,11.10
2023-12-09T16:44:56.684Z,11.30
2023-12-09T16:47:23.617Z,11.30
2023-12-09T16:49:50.640Z,11.40
2023-12-09T16:52:17.526Z,11.40
2023-12-09T16:54:44.490Z,11.40
2023-12-09T16:57:15.815Z,11.50
2023-12-09T16:59:42.884Z,11.50
2023-12-09T17:02:09.749Z,11.60
2023-12-09T17:04:36.774Z,11.50
2023-12-09T17:07:03.899Z,11.60
2023-12-09T17:09:32.056Z,11.60
2023-12-09T17:11:59.034Z,11.70
2023-12-09T17:14:26.778Z,11.70
2023-12-09T17:16:55.197Z,11.70
2023-12-09T17:19:22.440Z,11.70
2023-12-09T17:21:49.683Z,11.70
2023-12-09T17:24:16.720Z,11.70
2023-12-09T17:26:43.647Z,11.70
2023-12-09T17:29:10.540Z,11.70
2023-12-09T17:31:41.078Z,11.70
2023-12-09T17:34:10.983Z,11.70
2023-12-09T17:36:38.138Z,11.80
2023-12-09T17:39:07.312Z,11.80
2023-12-09T17:41:34.211Z,11.80
2023-12-09T17:44:01.057Z,11.70
2023-12-09T17:46:28.073Z,11.80
2023-12-09T17:48:55.696Z,11.70
2023-12-09T17:51:23.086Z,11.80
2023-12-09T17:53:50.102Z,11.90
2023-12-09T17:56:16.984Z,12.00
2023-12-09T17:58:43.800Z,12.10
2023-12-09T18:01:10.837Z,12.20
2023-12-09T18:03:37.972Z,12.20
2023-12-09T18:06:05.540Z,12.30
2023-12-09T18:08:34.229Z,12.40
2023-12-09T18:11:01.205Z,12.50
2023-12-09T18:13:28.234Z,12.60
2023-12-09T18:15:55.189Z,12.60
2023-12-09T18:18:22.496Z,12.70
2023-12-09T18:20:49.563Z,12.80
2023-12-09T18:23:16.420Z,12.80
2023-12-09T18:25:43.409Z,12.80
2023-12-09T18:28:10.305Z,12.90
2023-12-09T18:30:38.181Z,12.90
2023-12-09T18:33:05.254Z,12.90
2023-12-09T18:35:32.247Z,13.00
2023-12-09T18:38:00.376Z,13.10
2023-12-09T18:40:27.649Z,13.20
2023-12-09T18:42:54.622Z,13.20
2023-12-09T18:45:21.598Z,13.30
2023-12-09T18:47:48.749Z,13.30
2023-12-09T18:50:15.865Z,13.30
2023-12-09T18:52:43.154Z,13.40
2023-12-09T18:55:10.044Z,13.40
2023-12-09T18:57:37.500Z,13.50
2023-12-09T19:00:05.782Z,13.50
2023-12-09T19:02:33.231Z,13.50
2023-12-09T19:05:03.045Z,13.40
2023-12-09T19:07:30.091Z,13.40
2023-12-09T19:09:56.964Z,13.60
2023-12-09T19:12:24.040Z,13.50
2023-12-09T19:14:50.974Z,13.40
2023-12-09T19:17:17.992Z,13.40
2023-12-09T19:19:45.603Z,13.40
2023-12-09T19:22:12.560Z,13.40
2023-12-09T19:24:39.575Z,13.20
2023-12-09T19:27:08.573Z,13.20
2023-12-09T19:29:36.529Z,13.20
2023-12-09T19:32:03.985Z,13.10
2023-12-09T19:34:31.049Z,13.10
2023-12-09T19:36:58.150Z,13.00
2023-12-09T19:39:25.147Z,13.00
2023-12-09T19:41:52.029Z,12.90
2023-12-09T19:44:18.888Z,12.90
2023-12-09T19:46:45.884Z,12.90
2023-12-09T19:49:12.872Z,12.90
2023-12-09T19:51:40.211Z,12.80
2023-12-09T19:54:07.245Z,12.90
2023-12-09T19:56:34.132Z,12.60
2023-12-09T19:59:01.373Z,12.80
2023-12-09T20:01:28.364Z,12.90
2023-12-09T20:03:55.538Z,13.00
2023-12-09T20:06:22.829Z,13.00
2023-12-09T20:08:49.740Z,13.00
2023-12-09T20:11:17.527Z,13.10
2023-12-09T20:13:45.614Z,13.10
2023-12-09T20:16:12.720Z,13.20
2023-12-09T20:18:39.790Z,13.40
2023-12-09T20:21:08.096Z,13.20
2023-12-09T20:23:35.209Z,13.20
2023-12-09T20:26:02.358Z,13.20
2023-12-09T20:28:29.739Z,13.20
2023-12-09T20:30:58.290Z,13.20
2023-12-09T20:33:25.379Z,13.20
2023-12-09T20:35:52.315Z,13.20
2023-12-09T20:38:19.673Z,13.20
2023-12-09T20:40:46.461Z,13.20
2023-12-09T20:43:13.424Z,13.20
2023-12-09T20:45:40.521Z,13.20
2023-12-09T20:48:07.729Z,13.30
2023-12-09T20:50:34.646Z,13.30
2023-12-09T20:53:03.115Z,13.30
2023-12-09T20:55:30.155Z,13.30
2023-12-09T20:57:57.032Z,13.30
2023-12-09T21:00:23.943Z,13.30
2023-12-09T21:02:50.855Z,13.40
2023-12-09T21:05:17.866Z,13.30
2023-12-09T21:07:45.993Z,13.30
2023-12-09T21:10:13.272Z,13.40
2023-12-09T21:12:41.064Z,13.40
2023-12-09T21:15:08.290Z,13.40
2023-12-09T21:17:35.350Z,13.40
2023-12-09T21:20:03.556Z,13.40
2023-12-09T21:22:30.885Z,13.50
2023-12-09T21:24:58.862Z,13.50
2023-12-09T21:27:25.960Z,13.40
2023-12-09T21:29:53.270Z,13.40
2023-12-09T21:32:20.184Z,13.50
2023-12-09T21:34:47.344Z,13.40
2023-12-09T21:37:14.272Z,13.40
2023-12-09T21:39:41.713Z,13.40
2023-12-09T21:42:08.892Z,13.40
2023-12-09T21:44:36.004Z,13.40
2023-12-09T21:47:04.358Z,13.40
2023-12-09T21:49:31.324Z,13.40
2023-12-09T21:51:58.672Z,13.30
2023-12-09T21:54:25.732Z,13.30
2023-12-09T21:56:52.612Z,13.30
2023-12-09T21:59:19.609Z,13.30
2023-12-09T22:01:48.396Z,13.20
2023-12-09T22:04:16.768Z,13.20
2023-12-09T22:06:43.685Z,13.20
2023-12-09T22:09:14.277Z,13.20
2023-12-09T22:11:41.095Z,13.10
2023-12-09T22:14:07.961Z,13.20
2023-12-09T22:16:34.897Z,13.10
2023-12-09T22:19:01.950Z,13.10
2023-12-09T22:21:29.815Z,13.00
2023-12-09T22:23:56.804Z,13.00
2023-12-09T22:26:25.116Z,13.00
2023-12-09T22:28:52.513Z,13.00
2023-12-09T22:31:19.410Z,12.90
2023-12-09T22:33:50.828Z,12.80
2023-12-09T22:36:21.855Z,12.90
2023-12-09T22:38:49.481Z,12.80
2023-12-09T22:41:22.170Z,12.70
2023-12-09T22:43:49.774Z,12.70
2023-12-09T22:46:31.548Z,12.80
2023-12-09T22:48:59.943Z,12.80
2023-12-09T22:51:28.214Z,12.70
2023-12-09T22:53:55.396Z,12.80
2023-12-09T22:56:23.019Z,12.70
2023-12-09T22:58:50.676Z,12.80
2023-12-09T23:01:25.719Z,12.90
2023-12-09T23:03:52.961Z,12.90
2023-12-09T23:06:21.411Z,12.90
2023-12-09T23:08:49.062Z,13.00
2023-12-09T23:11:16.372Z,13.00
2023-12-09T23:13:43.289Z,13.10
2023-12-09T23:16:11.228Z,13.10
2023-12-09T23:18:39.359Z,13.20
2023-12-09T23:21:07.056Z,13.20
2023-12-09T23:23:35.052Z,13.20
2023-12-09T23:26:02.153Z,13.20
2023-12-09T23:28:29.046Z,13.20
2023-12-09T23:30:56.064Z,13.30
2023-12-09T23:33:23.801Z,13.30
2023-12-09T23:35:50.796Z,13.30
2023-12-09T23:38:17.854Z,13.30
2023-12-09T23:40:44.969Z,13.30
2023-12-09T23:43:11.980Z,13.30
2023-12-09T23:45:38.938Z,13.30
2023-12-09T23:48:06.973Z,13.30
2023-12-09T23:50:34.194Z,13.20
2023-12-09T23:53:01.150Z,13.20
2023-12-09T23:55:28.094Z,13.30
2023-12-09T23:57:55.047Z,13.20
